Time;durP1;ratioP1;P1;durP2;ratioP2;P2;SDS_P1;SDS_P2;PMS_P1;PMS_P2;Temp;Humidity;BMP_temperature;BMP_pressure;BME280_temperature;BME280_humidity;BME280_pressure;Samples;Min_cycle;Max_cycle;Signal;HPM_P1;HPM_P2
2023/02/09 00:00:47;;;;;;;;;;;25.70;99.90;;;;;;5056971;28;19924;-61
2023/02/09 00:03:13;;;;;;;;;;;25.50;99.90;;;;;;5056977;28;19973;-63
2023/02/09 00:05:39;;;;;;;;;;;25.40;99.90;;;;;;5057026;28;20272;-59
2023/02/09 00:08:06;;;;;;;;;;;25.40;99.90;;;;;;5056748;28;20670;-59
2023/02/09 00:10:32;;;;;;;;;;;25.20;99.90;;;;;;5057296;28;19917;-65
2023/02/09 00:15:47;;;;;;;;;;;25.00;99.90;;;;;;5057417;28;19962;-64
2023/02/09 00:18:14;;;;;;;;;;;25.00;99.90;;;;;;5042956;28;19923;-59
2023/02/09 00:20:40;;;;;;;;;;;24.80;99.90;;;;;;5056510;28;19993;-60
2023/02/09 00:23:06;;;;;;;;;;;24.60;99.90;;;;;;5056239;28;19952;-65
2023/02/09 00:25:33;;;;;;;;;;;24.70;99.90;;;;;;5055922;28;20513;-59
2023/02/09 00:27:59;;;;;;;;;;;24.80;99.90;;;;;;5055667;28;19943;-64
2023/02/09 00:30:26;;;;;;;;;;;24.70;99.90;;;;;;5055164;28;20370;-59
2023/02/09 00:32:52;;;;;;;;;;;24.80;99.90;;;;;;5056559;28;19915;-64
2023/02/09 00:35:19;;;;;;;;;;;24.80;99.90;;;;;;5056934;28;19912;-63
2023/02/09 00:37:45;;;;;;;;;;;24.90;99.90;;;;;;5056441;28;19920;-65
2023/02/09 00:40:12;;;;;;;;;;;25.10;99.90;;;;;;5056420;28;19959;-60
2023/02/09 00:42:38;;;;;;;;;;;25.40;99.90;;;;;;5055064;28;19940;-64
2023/02/09 00:45:04;;;;;;;;;;;25.60;99.90;;;;;;5056202;28;19916;-64
2023/02/09 00:47:31;;;;;;;;;;;26.00;99.90;;;;;;5054922;28;21055;-63
2023/02/09 00:49:57;;;;;;;;;;;26.30;99.90;;;;;;5056801;28;20003;-64
2023/02/09 00:52:24;;;;;;;;;;;26.60;99.90;;;;;;5056416;28;19924;-64
2023/02/09 00:54:50;;;;;;;;;;;26.90;99.90;;;;;;5055482;28;20419;-59
2023/02/09 00:57:16;;;;;;;;;;;27.00;99.90;;;;;;5056539;28;19915;-62
2023/02/09 00:59:43;;;;;;;;;;;27.20;99.90;;;;;;5056562;28;20601;-58
2023/02/09 01:02:09;;;;;;;;;;;27.30;99.90;;;;;;5054990;28;19978;-60
2023/02/09 01:04:36;;;;;;;;;;;27.80;99.90;;;;;;5056250;28;19916;-65
2023/02/09 01:07:03;;;;;;;;;;;28.00;99.90;;;;;;5055667;28;19917;-59
2023/02/09 01:09:29;;;;;;;;;;;28.30;99.90;;;;;;5055997;28;19915;-63
2023/02/09 01:11:56;;;;;;;;;;;28.00;99.90;;;;;;5054973;28;19940;-59
2023/02/09 01:14:23;;;;;;;;;;;28.30;99.90;;;;;;5055329;28;19940;-64
2023/02/09 01:16:49;;;;;;;;;;;28.30;99.90;;;;;;5055798;28;19912;-65
2023/02/09 01:19:15;;;;;;;;;;;28.30;99.90;;;;;;5055678;28;19916;-59
2023/02/09 01:21:42;;;;;;;;;;;28.50;99.90;;;;;;5055158;28;19959;-60
2023/02/09 01:24:12;;;;;;;;;;;28.30;99.90;;;;;;5057067;28;19916;-58
2023/02/09 01:26:38;;;;;;;;;;;28.30;99.90;;;;;;5056741;28;19917;-59
2023/02/09 01:29:05;;;;;;;;;;;28.20;99.90;;;;;;4357155;28;9999941;-59
2023/02/09 01:31:33;;;;;;;;;;;28.30;99.90;;;;;;5051736;28;19947;-64
2023/02/09 01:34:00;;;;;;;;;;;28.60;99.90;;;;;;5051662;28;20041;-64
2023/02/09 01:36:27;;;;;;;;;;;28.70;99.90;;;;;;5052887;28;19971;-65
2023/02/09 01:38:54;;;;;;;;;;;29.20;99.90;;;;;;5053055;28;20375;-62
2023/02/09 01:41:21;;;;;;;;;;;30.00;99.90;;;;;;5053285;28;19986;-64
2023/02/09 01:43:55;;;;;;;;;;;30.80;99.90;;;;;;5053309;28;19913;-58
2023/02/09 01:46:22;;;;;;;;;;;30.90;99.70;;;;;;5053802;28;20441;-60
2023/02/09 01:48:50;;;;;;;;;;;30.70;99.90;;;;;;5053313;28;19940;-67
2023/02/09 01:51:17;;;;;;;;;;;30.20;99.90;;;;;;5052517;28;20442;-62
2023/02/09 01:53:44;;;;;;;;;;;29.90;99.90;;;;;;5052463;28;19963;-60
2023/02/09 01:56:11;;;;;;;;;;;29.70;99.90;;;;;;5055389;28;19913;-65
2023/02/09 01:58:38;;;;;;;;;;;29.40;99.90;;;;;;5055125;28;20292;-65
2023/02/09 02:01:05;;;;;;;;;;;29.00;99.90;;;;;;5052735;28;20368;-59
2023/02/09 02:03:31;;;;;;;;;;;28.80;99.90;;;;;;5052619;28;19946;-59
2023/02/09 02:06:06;;;;;;;;;;;28.70;99.90;;;;;;5051293;28;20011;-65
2023/02/09 02:08:32;;;;;;;;;;;28.40;99.90;;;;;;5053508;28;19909;-58
2023/02/09 02:10:59;;;;;;;;;;;28.30;99.90;;;;;;5053063;28;20011;-60
2023/02/09 02:13:25;;;;;;;;;;;28.20;99.90;;;;;;5052799;28;19915;-65
2023/02/09 02:15:52;;;;;;;;;;;27.90;99.90;;;;;;5053996;28;19913;-64
2023/02/09 02:18:24;;;;;;;;;;;27.90;99.90;;;;;;5053923;28;19919;-60
2023/02/09 02:21:08;;;;;;;;;;;28.20;99.90;;;;;;5053825;28;20023;-64
2023/02/09 02:23:35;;;;;;;;;;;28.60;99.90;;;;;;5052142;28;20505;-59
2023/02/09 02:26:19;;;;;;;;;;;28.80;99.90;;;;;;5051592;28;19921;-59
2023/02/09 02:28:45;;;;;;;;;;;28.70;99.90;;;;;;5051998;28;19970;-64
2023/02/09 02:31:14;;;;;;;;;;;28.70;99.90;;;;;;5054524;28;20183;-65
2023/02/09 02:33:47;;;;;;;;;;;28.70;99.90;;;;;;5053382;28;19916;-61
2023/02/09 02:36:32;;;;;;;;;;;29.30;99.90;;;;;;5056053;28;19943;-65
2023/02/09 02:38:58;;;;;;;;;;;29.40;99.90;;;;;;5054811;28;20003;-66
2023/02/09 02:41:27;;;;;;;;;;;29.30;99.90;;;;;;5054800;28;19927;-65
2023/02/09 02:43:59;;;;;;;;;;;29.20;99.90;;;;;;5056194;28;19916;-65
2023/02/09 02:46:31;;;;;;;;;;;29.00;99.90;;;;;;5055437;28;19916;-66
2023/02/09 02:49:21;;;;;;;;;;;28.80;99.90;;;;;;5056276;28;19963;-64
2023/02/09 02:51:48;;;;;;;;;;;28.70;99.90;;;;;;5046764;28;20031;-60
2023/02/09 02:54:20;;;;;;;;;;;28.40;99.90;;;;;;5054482;28;20016;-65
2023/02/09 02:56:50;;;;;;;;;;;28.30;99.90;;;;;;5054648;28;19917;-64
2023/02/09 02:59:18;;;;;;;;;;;28.20;99.90;;;;;;5056592;28;19916;-60
2023/02/09 03:01:51;;;;;;;;;;;28.20;99.90;;;;;;5057371;28;19943;-60
2023/02/09 03:04:18;;;;;;;;;;;28.00;99.90;;;;;;5060484;28;20730;-59
2023/02/09 03:06:45;;;;;;;;;;;27.50;99.90;;;;;;5058233;28;20568;-59
2023/02/09 03:09:11;;;;;;;;;;;27.30;99.90;;;;;;5061312;28;19920;-64
2023/02/09 03:11:42;;;;;;;;;;;26.90;99.90;;;;;;5060940;28;19999;-59
2023/02/09 03:14:15;;;;;;;;;;;26.80;99.90;;;;;;5060579;28;19967;-59
2023/02/09 03:16:44;;;;;;;;;;;26.70;99.90;;;;;;5059057;28;19916;-59
2023/02/09 03:19:23;;;;;;;;;;;26.60;99.90;;;;;;5059625;28;19921;-60
2023/02/09 03:21:54;;;;;;;;;;;26.70;99.90;;;;;;5056757;28;19967;-63
2023/02/09 03:24:26;;;;;;;;;;;26.80;99.90;;;;;;5056385;28;20429;-59
2023/02/09 03:27:01;;;;;;;;;;;26.90;99.90;;;;;;5061526;28;20255;-59
2023/02/09 03:29:28;;;;;;;;;;;27.10;99.90;;;;;;5061440;28;20649;-60
2023/02/09 03:31:55;;;;;;;;;;;27.40;99.90;;;;;;5061528;28;20342;-66
2023/02/09 03:34:21;;;;;;;;;;;27.70;99.90;;;;;;5063557;28;19908;-59
2023/02/09 03:36:53;;;;;;;;;;;28.10;99.90;;;;;;5063805;28;20426;-59
2023/02/09 03:39:19;;;;;;;;;;;28.40;99.90;;;;;;5063756;28;20359;-65
2023/02/09 03:41:46;;;;;;;;;;;28.20;99.90;;;;;;5063171;28;20042;-68
2023/02/09 03:44:27;;;;;;;;;;;27.70;99.90;;;;;;5063525;28;20454;-69
2023/02/09 03:46:54;;;;;;;;;;;27.50;99.90;;;;;;5063902;28;19951;-61
2023/02/09 03:49:20;;;;;;;;;;;27.10;99.90;;;;;;5060688;28;19999;-60
2023/02/09 03:51:46;;;;;;;;;;;27.10;99.90;;;;;;5062552;28;19908;-60
2023/02/09 03:54:13;;;;;;;;;;;27.20;99.90;;;;;;5060562;28;19912;-63
2023/02/09 03:56:39;;;;;;;;;;;27.30;99.90;;;;;;5044836;28;21085;-64
2023/02/09 03:59:06;;;;;;;;;;;27.30;99.90;;;;;;5061297;28;20019;-59
2023/02/09 04:01:32;;;;;;;;;;;27.10;99.90;;;;;;5056744;28;19920;-64
2023/02/09 04:04:00;;;;;;;;;;;26.70;99.90;;;;;;5053417;28;19990;-60
2023/02/09 04:06:31;;;;;;;;;;;26.40;99.90;;;;;;5055492;28;20023;-64
2023/02/09 04:08:58;;;;;;;;;;;26.40;99.90;;;;;;5054879;28;19908;-66
2023/02/09 04:11:24;;;;;;;;;;;26.40;99.90;;;;;;5055505;28;19916;-59
2023/02/09 04:13:51;;;;;;;;;;;26.50;99.90;;;;;;5055435;28;20438;-59
2023/02/09 04:16:17;;;;;;;;;;;26.60;99.90;;;;;;5055235;28;19917;-59
2023/02/09 04:18:44;;;;;;;;;;;26.60;99.90;;;;;;5054581;28;19970;-59
2023/02/09 04:21:11;;;;;;;;;;;27.20;99.90;;;;;;5054792;28;19923;-59
2023/02/09 04:23:37;;;;;;;;;;;27.60;99.90;;;;;;5055072;28;20288;-65
2023/02/09 04:26:04;;;;;;;;;;;27.70;99.90;;;;;;5054817;28;19924;-65
2023/02/09 04:28:30;;;;;;;;;;;27.30;99.90;;;;;;5053855;28;19974;-65
2023/02/09 04:30:57;;;;;;;;;;;27.00;99.90;;;;;;5055019;28;19912;-59
2023/02/09 04:33:23;;;;;;;;;;;27.00;99.90;;;;;;5052966;28;19954;-60
2023/02/09 04:35:50;;;;;;;;;;;27.00;99.90;;;;;;5054303;28;19917;-68
2023/02/09 04:38:19;;;;;;;;;;;27.00;99.90;;;;;;5054701;28;20587;-60
2023/02/09 04:40:46;;;;;;;;;;;27.10;99.90;;;;;;5054317;28;19922;-60
2023/02/09 04:43:12;;;;;;;;;;;27.20;99.90;;;;;;5053970;28;19912;-73
2023/02/09 04:45:39;;;;;;;;;;;27.50;99.90;;;;;;5054574;28;19916;-65
2023/02/09 04:48:06;;;;;;;;;;;28.00;99.90;;;;;;5053320;28;20471;-65
2023/02/09 04:50:33;;;;;;;;;;;28.80;99.90;;;;;;5053913;28;19913;-65
2023/02/09 04:53:00;;;;;;;;;;;29.10;99.90;;;;;;5052073;28;20011;-59
2023/02/09 04:55:27;;;;;;;;;;;29.00;99.90;;;;;;5054370;28;19958;-59
2023/02/09 05:00:38;;;;;;;;;;;28.80;99.90;;;;;;5053954;28;20301;-65
2023/02/09 05:03:04;;;;;;;;;;;28.60;99.90;;;;;;5053982;28;19919;-62
2023/02/09 05:05:31;;;;;;;;;;;28.20;99.90;;;;;;5054559;28;20604;-62
2023/02/09 05:07:57;;;;;;;;;;;28.00;99.90;;;;;;5053679;28;20011;-67
2023/02/09 05:10:24;;;;;;;;;;;28.10;99.90;;;;;;5053991;28;19912;-64
2023/02/09 05:12:51;;;;;;;;;;;28.10;99.90;;;;;;5052441;28;19912;-61
2023/02/09 05:15:17;;;;;;;;;;;28.00;99.90;;;;;;5050855;28;19916;-65
2023/02/09 05:17:44;;;;;;;;;;;27.90;99.90;;;;;;5052384;28;19912;-62
2023/02/09 05:20:10;;;;;;;;;;;28.00;99.90;;;;;;5052635;28;19959;-61
2023/02/09 05:22:37;;;;;;;;;;;28.20;99.90;;;;;;5052732;28;19913;-63
2023/02/09 05:25:03;;;;;;;;;;;28.30;99.90;;;;;;5053231;28;20074;-63
2023/02/09 05:27:29;;;;;;;;;;;28.40;99.90;;;;;;5053133;28;19916;-62
2023/02/09 05:29:56;;;;;;;;;;;27.80;99.90;;;;;;5053486;28;19923;-60
2023/02/09 05:32:22;;;;;;;;;;;27.70;99.90;;;;;;5052451;28;19970;-60
2023/02/09 05:34:48;;;;;;;;;;;27.50;99.90;;;;;;5051460;28;20496;-63
2023/02/09 05:37:15;;;;;;;;;;;27.60;99.90;;;;;;5051657;28;19923;-65
2023/02/09 05:39:41;;;;;;;;;;;27.80;99.90;;;;;;5051086;28;19955;-66
2023/02/09 05:42:15;;;;;;;;;;;28.10;99.90;;;;;;5051920;28;19916;-64
2023/02/09 05:44:43;;;;;;;;;;;28.40;99.90;;;;;;5052965;28;19908;-66
2023/02/09 05:47:09;;;;;;;;;;;28.20;99.90;;;;;;5052881;28;20256;-66
2023/02/09 05:49:36;;;;;;;;;;;28.10;99.90;;;;;;5050142;28;19995;-65
2023/02/09 05:52:02;;;;;;;;;;;28.00;99.90;;;;;;5035017;28;20300;-61
2023/02/09 05:54:29;;;;;;;;;;;27.80;99.90;;;;;;5040150;28;19919;-66
2023/02/09 05:56:55;;;;;;;;;;;27.60;99.90;;;;;;5052057;28;19913;-64
2023/02/09 05:59:22;;;;;;;;;;;27.40;99.90;;;;;;5053031;28;20779;-65
2023/02/09 06:01:48;;;;;;;;;;;27.40;99.90;;;;;;5050775;28;19973;-61
2023/02/09 06:04:15;;;;;;;;;;;27.60;99.90;;;;;;5051371;28;20317;-65
2023/02/09 06:06:41;;;;;;;;;;;27.50;99.90;;;;;;5052331;28;20003;-62
2023/02/09 06:09:08;;;;;;;;;;;27.40;99.90;;;;;;5052411;28;20274;-67
2023/02/09 06:11:34;;;;;;;;;;;27.20;99.90;;;;;;5051887;28;20025;-66
2023/02/09 06:14:01;;;;;;;;;;;27.10;99.90;;;;;;5052959;28;19973;-62
2023/02/09 06:16:27;;;;;;;;;;;27.10;99.90;;;;;;5052324;28;20284;-63
2023/02/09 06:18:54;;;;;;;;;;;26.90;99.90;;;;;;5052493;28;20135;-64
2023/02/09 06:21:20;;;;;;;;;;;26.90;99.90;;;;;;5053345;28;20108;-66
2023/02/09 06:23:47;;;;;;;;;;;26.80;99.90;;;;;;5053260;28;19917;-63
2023/02/09 06:26:14;;;;;;;;;;;26.70;99.90;;;;;;5052523;28;20084;-61
2023/02/09 06:28:41;;;;;;;;;;;26.70;99.90;;;;;;5051141;28;19922;-66
2023/02/09 06:31:08;;;;;;;;;;;26.80;99.90;;;;;;5054469;28;19917;-66
2023/02/09 06:33:34;;;;;;;;;;;26.50;99.90;;;;;;5054303;28;19951;-61
2023/02/09 06:36:01;;;;;;;;;;;26.20;99.90;;;;;;5053987;28;19979;-61
2023/02/09 06:38:29;;;;;;;;;;;26.20;99.90;;;;;;5052201;28;19916;-61
2023/02/09 06:40:56;;;;;;;;;;;26.10;99.90;;;;;;5051189;28;20302;-60
2023/02/09 06:43:22;;;;;;;;;;;26.00;99.90;;;;;;5052803;28;19950;-69
2023/02/09 06:45:48;;;;;;;;;;;26.00;99.90;;;;;;5053163;28;21220;-61
2023/02/09 06:48:15;;;;;;;;;;;26.00;99.90;;;;;;5052876;28;19994;-59
2023/02/09 06:50:41;;;;;;;;;;;26.10;99.90;;;;;;5046662;28;19912;-66
2023/02/09 06:53:08;;;;;;;;;;;26.20;99.90;;;;;;5051643;28;19961;-60
2023/02/09 06:55:34;;;;;;;;;;;26.20;99.90;;;;;;5050107;28;20303;-68
2023/02/09 06:58:01;;;;;;;;;;;26.10;99.90;;;;;;5051715;28;19916;-71
2023/02/09 07:00:27;;;;;;;;;;;26.00;99.90;;;;;;5050338;28;19916;-59
2023/02/09 07:02:54;;;;;;;;;;;26.10;99.90;;;;;;5051631;28;20014;-62
2023/02/09 07:05:21;;;;;;;;;;;26.20;99.90;;;;;;5049559;28;19961;-68
2023/02/09 07:07:47;;;;;;;;;;;26.60;99.90;;;;;;5049107;28;19923;-61
2023/02/09 07:10:15;;;;;;;;;;;26.90;99.90;;;;;;5049363;28;19909;-62
2023/02/09 07:12:42;;;;;;;;;;;26.90;99.90;;;;;;5049840;28;20037;-68
2023/02/09 07:15:09;;;;;;;;;;;26.60;99.90;;;;;;5050348;28;19927;-71
2023/02/09 07:17:36;;;;;;;;;;;26.40;99.90;;;;;;5053866;28;19977;-61
2023/02/09 07:20:02;;;;;;;;;;;25.90;99.90;;;;;;5038681;28;19917;-60
2023/02/09 07:22:29;;;;;;;;;;;25.80;99.90;;;;;;5053683;28;19963;-60
2023/02/09 07:24:56;;;;;;;;;;;25.60;99.90;;;;;;5054016;28;19917;-62
2023/02/09 07:27:22;;;;;;;;;;;25.50;99.90;;;;;;5053477;28;19971;-72
2023/02/09 07:29:49;;;;;;;;;;;25.40;99.90;;;;;;5051045;28;20233;-71
2023/02/09 07:32:15;;;;;;;;;;;25.30;99.90;;;;;;5054288;28;19923;-65
2023/02/09 07:34:42;;;;;;;;;;;25.30;99.90;;;;;;5054673;28;19965;-66
2023/02/09 07:37:08;;;;;;;;;;;25.10;99.90;;;;;;5054776;28;19951;-71
2023/02/09 07:39:35;;;;;;;;;;;24.90;99.90;;;;;;5054285;28;19920;-66
2023/02/09 07:42:01;;;;;;;;;;;24.80;99.90;;;;;;5052343;28;19919;-69
2023/02/09 07:44:27;;;;;;;;;;;24.90;99.90;;;;;;5054232;28;20042;-66
2023/02/09 07:46:54;;;;;;;;;;;24.70;99.90;;;;;;5053689;28;19923;-66
2023/02/09 07:49:20;;;;;;;;;;;24.60;99.90;;;;;;5054053;28;20152;-70
2023/02/09 07:51:46;;;;;;;;;;;24.50;99.90;;;;;;5054357;28;20530;-63
2023/02/09 07:54:13;;;;;;;;;;;24.40;99.90;;;;;;5052142;28;19912;-62
2023/02/09 07:56:40;;;;;;;;;;;24.30;99.90;;;;;;5050171;28;19919;-71
2023/02/09 07:59:07;;;;;;;;;;;24.40;99.90;;;;;;5051843;28;20011;-65
2023/02/09 08:01:33;;;;;;;;;;;24.30;99.90;;;;;;5059050;28;20347;-74
2023/02/09 08:04:00;;;;;;;;;;;24.20;99.90;;;;;;5058072;28;21124;-63
2023/02/09 08:06:33;;;;;;;;;;;24.40;99.90;;;;;;5054991;28;20400;-66
2023/02/09 08:09:01;;;;;;;;;;;24.40;99.90;;;;;;5053301;28;19917;-69
2023/02/09 08:11:30;;;;;;;;;;;24.30;99.90;;;;;;5055895;28;19928;-65
2023/02/09 08:13:57;;;;;;;;;;;24.30;99.90;;;;;;5059537;28;19955;-63
2023/02/09 08:16:25;;;;;;;;;;;24.20;99.90;;;;;;5053232;28;19912;-66
2023/02/09 08:18:56;;;;;;;;;;;24.00;99.90;;;;;;5052831;28;20014;-63
2023/02/09 08:21:23;;;;;;;;;;;23.90;99.90;;;;;;5056971;28;20016;-67
2023/02/09 08:23:52;;;;;;;;;;;23.90;99.90;;;;;;5056679;28;19924;-67
2023/02/09 08:26:19;;;;;;;;;;;23.80;99.90;;;;;;5056690;28;19913;-62
2023/02/09 08:28:45;;;;;;;;;;;23.70;99.90;;;;;;5053471;28;19916;-63
2023/02/09 08:31:12;;;;;;;;;;;23.60;99.90;;;;;;5055642;28;20267;-62
2023/02/09 08:33:39;;;;;;;;;;;23.60;99.90;;;;;;5055278;28;19962;-69
2023/02/09 08:36:06;;;;;;;;;;;23.40;99.90;;;;;;5055055;28;19916;-71
2023/02/09 08:38:33;;;;;;;;;;;23.40;99.90;;;;;;5054874;28;19943;-61
2023/02/09 08:41:06;;;;;;;;;;;23.20;99.90;;;;;;5054043;28;19938;-65
2023/02/09 08:43:33;;;;;;;;;;;23.20;99.90;;;;;;5054321;28;19912;-66
2023/02/09 08:46:03;;;;;;;;;;;23.20;99.90;;;;;;5053393;28;19957;-67
2023/02/09 08:48:30;;;;;;;;;;;23.10;99.90;;;;;;5044214;28;19913;-64
2023/02/09 08:50:57;;;;;;;;;;;23.10;99.90;;;;;;5024255;28;20408;-64
2023/02/09 08:53:23;;;;;;;;;;;23.00;99.90;;;;;;5032569;28;19956;-64
2023/02/09 08:55:50;;;;;;;;;;;22.90;99.90;;;;;;5026822;28;19912;-64
2023/02/09 08:58:16;;;;;;;;;;;22.90;99.90;;;;;;5032915;28;19912;-72
2023/02/09 09:00:45;;;;;;;;;;;22.90;99.90;;;;;;5048883;28;19916;-67
2023/02/09 09:03:12;;;;;;;;;;;22.80;99.90;;;;;;5034901;28;19962;-71
2023/02/09 09:05:39;;;;;;;;;;;22.70;99.90;;;;;;5032157;28;20460;-64
2023/02/09 09:08:05;;;;;;;;;;;22.60;99.90;;;;;;5037723;28;20047;-66
2023/02/09 09:10:31;;;;;;;;;;;22.50;99.90;;;;;;5038148;28;19912;-66
2023/02/09 09:12:58;;;;;;;;;;;22.40;99.90;;;;;;5032048;28;19916;-72
2023/02/09 09:15:24;;;;;;;;;;;22.40;99.90;;;;;;5035187;28;19959;-66
2023/02/09 09:17:51;;;;;;;;;;;22.40;99.90;;;;;;5030183;28;20274;-64
2023/02/09 09:20:17;;;;;;;;;;;22.50;99.90;;;;;;5033780;28;19923;-66
2023/02/09 09:22:43;;;;;;;;;;;22.40;99.90;;;;;;5042708;28;19917;-64
2023/02/09 09:25:10;;;;;;;;;;;22.50;99.90;;;;;;5037191;28;19913;-67
2023/02/09 09:27:36;;;;;;;;;;;22.50;99.90;;;;;;5042742;28;20313;-70
2023/02/09 09:30:03;;;;;;;;;;;22.40;99.90;;;;;;5037683;28;19912;-69
2023/02/09 09:32:29;;;;;;;;;;;22.40;99.90;;;;;;5040482;28;20479;-66
2023/02/09 09:34:57;;;;;;;;;;;22.30;99.90;;;;;;5018050;28;20343;-63
2023/02/09 09:37:24;;;;;;;;;;;22.30;99.90;;;;;;5033216;28;20348;-66
2023/02/09 09:39:51;;;;;;;;;;;22.30;99.90;;;;;;5039537;28;19935;-71
2023/02/09 09:42:20;;;;;;;;;;;22.30;99.90;;;;;;5049659;28;19939;-62
2023/02/09 09:44:46;;;;;;;;;;;22.40;99.90;;;;;;5037273;28;20015;-71
2023/02/09 09:47:15;;;;;;;;;;;22.40;99.90;;;;;;5047437;28;19912;-63
2023/02/09 09:49:42;;;;;;;;;;;22.30;99.90;;;;;;5049501;28;20171;-64
2023/02/09 09:52:08;;;;;;;;;;;22.20;99.90;;;;;;5048579;28;19959;-64
2023/02/09 09:54:35;;;;;;;;;;;22.20;99.90;;;;;;5036245;28;19920;-73
2023/02/09 09:57:02;;;;;;;;;;;22.10;99.90;;;;;;5049117;28;19913;-64
2023/02/09 09:59:31;;;;;;;;;;;22.00;99.90;;;;;;5057061;22;19932;-73
2023/02/09 10:02:00;;;;;;;;;;;21.80;99.90;;;;;;5048302;28;20011;-63
2023/02/09 10:04:27;;;;;;;;;;;21.70;99.90;;;;;;5049201;28;19916;-70
2023/02/09 10:06:59;;;;;;;;;;;21.70;99.90;;;;;;5048721;28;19956;-63
2023/02/09 10:09:36;;;;;;;;;;;21.80;99.90;;;;;;5050428;28;19919;-62
2023/02/09 10:12:13;;;;;;;;;;;21.80;99.90;;;;;;5048781;28;19948;-63
2023/02/09 10:14:40;;;;;;;;;;;21.90;99.90;;;;;;5049287;28;19916;-62
2023/02/09 10:17:07;;;;;;;;;;;21.80;99.90;;;;;;5047625;28;19916;-64
2023/02/09 10:19:33;;;;;;;;;;;21.80;99.90;;;;;;5044984;28;19994;-69
2023/02/09 10:21:59;;;;;;;;;;;21.70;99.90;;;;;;5039141;28;19916;-65
2023/02/09 10:24:27;;;;;;;;;;;21.80;99.90;;;;;;5039176;28;20396;-74
2023/02/09 10:27:20;;;;;;;;;;;21.80;99.90;;;;;;5039191;28;20276;-69
2023/02/09 10:29:46;;;;;;;;;;;21.80;99.90;;;;;;5033246;28;19916;-64
2023/02/09 10:32:14;;;;;;;;;;;21.70;99.90;;;;;;5038923;28;20051;-63
2023/02/09 10:34:48;;;;;;;;;;;21.60;99.90;;;;;;5039232;28;19939;-63
2023/02/09 10:37:17;;;;;;;;;;;21.40;99.90;;;;;;5035014;28;20023;-65
2023/02/09 10:39:45;;;;;;;;;;;21.40;99.90;;;;;;5035027;28;20302;-69
2023/02/09 10:42:50;;;;;;;;;;;21.40;99.90;;;;;;5032863;28;20012;-71
2023/02/09 10:45:24;;;;;;;;;;;21.40;99.90;;;;;;4949579;28;19918;-74
2023/02/09 10:48:01;;;;;;;;;;;21.40;99.90;;;;;;4963216;28;20352;-62
2023/02/09 10:50:27;;;;;;;;;;;21.30;99.90;;;;;;4964391;28;19925;-63
2023/02/09 10:52:55;;;;;;;;;;;21.20;99.90;;;;;;4971781;28;19913;-70
2023/02/09 10:55:25;;;;;;;;;;;21.10;99.90;;;;;;4966522;28;19952;-63
2023/02/09 10:57:51;;;;;;;;;;;21.10;99.90;;;;;;4965962;28;20319;-62
2023/02/09 11:00:17;;;;;;;;;;;21.10;99.90;;;;;;4963135;28;19926;-70
2023/02/09 11:02:51;;;;;;;;;;;21.00;99.90;;;;;;4967103;28;19929;-65
2023/02/09 11:05:20;;;;;;;;;;;21.10;99.90;;;;;;4968778;28;19953;-65
2023/02/09 11:07:55;;;;;;;;;;;21.10;99.90;;;;;;4966255;28;19922;-70
2023/02/09 11:10:22;;;;;;;;;;;21.10;99.90;;;;;;4965762;28;19969;-64
2023/02/09 11:12:48;;;;;;;;;;;21.20;99.90;;;;;;4970339;28;19918;-71
2023/02/09 11:15:15;;;;;;;;;;;21.20;99.90;;;;;;4980363;28;20357;-69
2023/02/09 11:17:53;;;;;;;;;;;21.10;99.90;;;;;;5038947;28;19916;-69
2023/02/09 11:20:23;;;;;;;;;;;21.10;99.90;;;;;;5035236;28;19963;-63
2023/02/09 11:23:07;;;;;;;;;;;21.10;99.90;;;;;;5033929;28;20205;-71
2023/02/09 11:25:52;;;;;;;;;;;21.10;99.90;;;;;;5038235;28;19919;-71
2023/02/09 11:28:24;;;;;;;;;;;21.10;99.90;;;;;;5034536;28;19975;-70
2023/02/09 11:30:54;;;;;;;;;;;21.00;99.90;;;;;;5014882;28;19913;-70
2023/02/09 11:33:26;;;;;;;;;;;20.90;99.90;;;;;;5036830;28;19917;-71
2023/02/09 11:35:52;;;;;;;;;;;20.90;99.90;;;;;;5037811;28;19939;-71
2023/02/09 11:38:21;;;;;;;;;;;20.90;99.90;;;;;;5039404;28;20329;-64
2023/02/09 11:40:52;;;;;;;;;;;20.90;99.90;;;;;;5036677;28;20007;-64
2023/02/09 11:43:18;;;;;;;;;;;21.00;99.90;;;;;;5039000;28;20270;-70
2023/02/09 11:45:46;;;;;;;;;;;21.00;99.90;;;;;;5038206;28;19917;-70
2023/02/09 11:48:18;;;;;;;;;;;21.00;99.90;;;;;;5040858;28;19917;-71
2023/02/09 11:51:00;;;;;;;;;;;20.90;99.90;;;;;;5038491;28;20296;-70
2023/02/09 11:53:42;;;;;;;;;;;20.80;99.90;;;;;;5039707;28;19928;-69
2023/02/09 11:56:10;;;;;;;;;;;20.70;99.90;;;;;;5039301;28;19913;-69
2023/02/09 11:59:00;;;;;;;;;;;20.80;99.90;;;;;;5043410;28;20402;-69
2023/02/09 12:01:30;;;;;;;;;;;20.80;99.90;;;;;;5031880;28;19921;-63
2023/02/09 12:03:56;;;;;;;;;;;20.80;99.90;;;;;;5041060;28;20017;-64
2023/02/09 12:06:23;;;;;;;;;;;20.70;99.90;;;;;;5038475;28;19913;-64
2023/02/09 12:08:55;;;;;;;;;;;20.50;99.90;;;;;;5038087;28;20046;-67
2023/02/09 12:11:21;;;;;;;;;;;20.40;99.90;;;;;;5039012;28;20276;-64
2023/02/09 12:14:06;;;;;;;;;;;20.30;99.90;;;;;;5042393;28;19922;-70
2023/02/09 12:16:40;;;;;;;;;;;20.20;99.90;;;;;;5039675;28;19916;-70
2023/02/09 12:19:27;;;;;;;;;;;20.10;99.90;;;;;;5039732;28;19962;-65
2023/02/09 12:21:53;;;;;;;;;;;20.10;99.90;;;;;;5037817;28;19924;-70
2023/02/09 12:24:33;;;;;;;;;;;20.00;99.90;;;;;;5038480;28;19913;-65
2023/02/09 12:26:59;;;;;;;;;;;20.00;99.90;;;;;;5040726;28;19917;-64
2023/02/09 12:29:26;;;;;;;;;;;20.10;99.90;;;;;;5037025;28;19912;-64
2023/02/09 12:32:01;;;;;;;;;;;20.10;99.90;;;;;;5042742;28;19921;-67
2023/02/09 12:34:32;;;;;;;;;;;20.00;99.90;;;;;;5041124;28;19913;-62
2023/02/09 12:37:01;;;;;;;;;;;20.20;99.90;;;;;;5039608;28;19916;-70
2023/02/09 12:39:28;;;;;;;;;;;20.20;99.90;;;;;;5040483;28;19955;-70
2023/02/09 12:41:54;;;;;;;;;;;20.10;99.90;;;;;;5039464;28;19921;-64
2023/02/09 12:44:21;;;;;;;;;;;19.90;99.90;;;;;;5043069;28;19904;-63
2023/02/09 12:46:55;;;;;;;;;;;19.80;99.90;;;;;;5038611;28;19932;-67
2023/02/09 12:49:27;;;;;;;;;;;19.90;99.90;;;;;;5037458;28;19905;-64
2023/02/09 12:52:09;;;;;;;;;;;20.10;99.90;;;;;;5040962;28;19909;-64
2023/02/09 12:54:41;;;;;;;;;;;20.20;99.90;;;;;;5041471;28;19913;-64
2023/02/09 12:57:19;;;;;;;;;;;20.20;99.90;;;;;;5021534;28;19912;-62
2023/02/09 12:59:45;;;;;;;;;;;20.20;99.90;;;;;;5023323;28;20327;-63
2023/02/09 13:02:15;;;;;;;;;;;20.10;99.90;;;;;;5038929;28;19932;-70
2023/02/09 13:05:01;;;;;;;;;;;20.00;99.90;;;;;;5040398;28;19920;-70
2023/02/09 13:07:37;;;;;;;;;;;20.00;99.90;;;;;;5038682;28;19916;-68
2023/02/09 13:10:15;;;;;;;;;;;20.10;99.90;;;;;;5038384;28;20282;-63
2023/02/09 13:12:44;;;;;;;;;;;20.00;99.90;;;;;;5037619;28;20003;-63
2023/02/09 13:15:12;;;;;;;;;;;20.00;99.90;;;;;;5038345;28;19916;-69
2023/02/09 13:18:05;;;;;;;;;;;20.00;99.90;;;;;;5039092;28;19908;-68
2023/02/09 13:20:47;;;;;;;;;;;19.90;99.90;;;;;;5039489;28;19971;-68
2023/02/09 13:23:22;;;;;;;;;;;19.90;99.90;;;;;;5039168;28;19917;-68
2023/02/09 13:25:48;;;;;;;;;;;19.90;99.90;;;;;;5041630;28;19974;-69
2023/02/09 13:28:19;;;;;;;;;;;19.90;99.90;;;;;;5039082;28;20003;-64
2023/02/09 13:30:46;;;;;;;;;;;19.90;99.90;;;;;;5040400;28;19912;-70
2023/02/09 13:33:33;;;;;;;;;;;19.90;99.90;;;;;;5041441;28;20584;-68
2023/02/09 13:35:59;;;;;;;;;;;20.00;99.90;;;;;;5043745;28;20007;-69
2023/02/09 13:38:28;;;;;;;;;;;20.10;99.90;;;;;;5038974;28;19949;-68
2023/02/09 13:40:54;;;;;;;;;;;20.10;99.90;;;;;;5036419;28;20365;-64
2023/02/09 13:43:29;;;;;;;;;;;20.00;99.90;;;;;;5040740;28;19908;-69
2023/02/09 13:45:56;;;;;;;;;;;19.80;99.90;;;;;;5042563;28;20007;-65
2023/02/09 13:48:32;;;;;;;;;;;19.70;99.90;;;;;;5039677;28;19916;-70
2023/02/09 13:51:00;;;;;;;;;;;19.60;99.90;;;;;;5044170;28;19952;-64
2023/02/09 13:53:27;;;;;;;;;;;19.50;99.90;;;;;;5042515;28;19909;-68
2023/02/09 13:55:55;;;;;;;;;;;19.30;99.90;;;;;;5040402;28;19908;-64
2023/02/09 13:58:23;;;;;;;;;;;19.20;99.90;;;;;;5041216;28;19917;-70
2023/02/09 14:00:55;;;;;;;;;;;19.20;99.90;;;;;;5041990;28;20262;-69
2023/02/09 14:03:29;;;;;;;;;;;19.10;99.90;;;;;;5043136;28;19917;-63
2023/02/09 14:06:01;;;;;;;;;;;19.10;99.90;;;;;;5038093;28;19909;-64
2023/02/09 14:08:28;;;;;;;;;;;19.20;99.90;;;;;;5040835;28;20076;-68
2023/02/09 14:11:01;;;;;;;;;;;19.10;99.90;;;;;;5026068;28;20254;-69
2023/02/09 14:13:31;;;;;;;;;;;19.20;99.90;;;;;;5042933;28;19913;-70
2023/02/09 14:16:08;;;;;;;;;;;19.20;99.90;;;;;;5045310;28;20234;-63
2023/02/09 14:18:46;;;;;;;;;;;19.20;99.90;;;;;;5044774;28;19909;-63
2023/02/09 14:21:14;;;;;;;;;;;19.30;99.90;;;;;;5039642;28;19921;-68
2023/02/09 14:23:42;;;;;;;;;;;19.30;99.90;;;;;;5041203;28;19912;-63
2023/02/09 14:26:14;;;;;;;;;;;19.30;99.90;;;;;;5027432;28;20291;-63
2023/02/09 14:28:42;;;;;;;;;;;19.40;99.90;;;;;;5049132;28;19913;-69
2023/02/09 14:31:19;;;;;;;;;;;19.20;99.90;;;;;;5044850;28;20337;-70